sensor_id;sensor_type;location;lat;lon;timestamp;P1;durP1;ratioP1;P2;durP2;ratioP2
10465;SDS011;5280;42.600;23.556;2023-02-12T00:01:13;14.77;;;8.50;;
10465;SDS011;5280;42.600;23.556;2023-02-12T00:03:40;13.50;;;8.93;;
10465;SDS011;5280;42.600;23.556;2023-02-12T00:06:11;14.57;;;8.87;;
10465;SDS011;5280;42.600;23.556;2023-02-12T00:08:38;13.53;;;9.00;;
10465;SDS011;5280;42.600;23.556;2023-02-12T00:11:09;14.73;;;8.43;;
10465;SDS011;5280;42.600;23.556;2023-02-12T00:13:37;11.83;;;9.10;;
10465;SDS011;5280;42.600;23.556;2023-02-12T00:16:05;12.90;;;8.70;;
10465;SDS011;5280;42.600;23.556;2023-02-12T00:18:34;11.70;;;8.83;;
10465;SDS011;5280;42.600;23.556;2023-02-12T00:21:02;10.70;;;7.80;;
10465;SDS011;5280;42.600;23.556;2023-02-12T00:23:30;10.73;;;7.33;;
10465;SDS011;5280;42.600;23.556;2023-02-12T00:25:57;12.10;;;7.63;;
10465;SDS011;5280;42.600;23.556;2023-02-12T00:28:24;11.07;;;7.73;;
10465;SDS011;5280;42.600;23.556;2023-02-12T00:30:51;14.70;;;8.20;;
10465;SDS011;5280;42.600;23.556;2023-02-12T00:33:17;17.40;;;8.23;;
10465;SDS011;5280;42.600;23.556;2023-02-12T00:35:44;11.37;;;8.03;;
10465;SDS011;5280;42.600;23.556;2023-02-12T00:38:11;12.00;;;8.57;;
10465;SDS011;5280;42.600;23.556;2023-02-12T00:40:39;13.37;;;9.13;;
10465;SDS011;5280;42.600;23.556;2023-02-12T00:43:06;11.43;;;8.13;;
10465;SDS011;5280;42.600;23.556;2023-02-12T00:45:32;11.80;;;8.67;;
10465;SDS011;5280;42.600;23.556;2023-02-12T00:48:02;11.90;;;8.53;;
10465;SDS011;5280;42.600;23.556;2023-02-12T00:50:29;13.00;;;8.53;;
10465;SDS011;5280;42.600;23.556;2023-02-12T00:52:55;12.03;;;8.97;;
10465;SDS011;5280;42.600;23.556;2023-02-12T00:55:22;14.63;;;9.67;;
10465;SDS011;5280;42.600;23.556;2023-02-12T00:57:50;12.40;;;9.17;;
10465;SDS011;5280;42.600;23.556;2023-02-12T01:00:17;15.57;;;9.87;;
10465;SDS011;5280;42.600;23.556;2023-02-12T01:02:44;14.40;;;9.33;;
10465;SDS011;5280;42.600;23.556;2023-02-12T01:05:11;14.20;;;9.93;;
10465;SDS011;5280;42.600;23.556;2023-02-12T01:07:37;15.83;;;10.27;;
10465;SDS011;5280;42.600;23.556;2023-02-12T01:10:05;13.70;;;9.77;;
10465;SDS011;5280;42.600;23.556;2023-02-12T01:12:33;12.50;;;9.10;;
10465;SDS011;5280;42.600;23.556;2023-02-12T01:15:01;15.37;;;9.80;;
10465;SDS011;5280;42.600;23.556;2023-02-12T01:17:28;15.07;;;10.37;;
10465;SDS011;5280;42.600;23.556;2023-02-12T01:19:56;14.60;;;9.30;;
10465;SDS011;5280;42.600;23.556;2023-02-12T01:22:23;16.97;;;9.50;;
10465;SDS011;5280;42.600;23.556;2023-02-12T01:24:50;12.77;;;9.27;;
10465;SDS011;5280;42.600;23.556;2023-02-12T01:27:17;15.33;;;9.20;;
10465;SDS011;5280;42.600;23.556;2023-02-12T01:29:44;15.87;;;9.90;;
10465;SDS011;5280;42.600;23.556;2023-02-12T01:32:12;15.40;;;9.30;;
10465;SDS011;5280;42.600;23.556;2023-02-12T01:34:39;13.47;;;9.53;;
10465;SDS011;5280;42.600;23.556;2023-02-12T01:37:06;13.17;;;9.83;;
10465;SDS011;5280;42.600;23.556;2023-02-12T01:39:33;16.10;;;10.80;;
10465;SDS011;5280;42.600;23.556;2023-02-12T01:42:01;14.40;;;10.10;;
10465;SDS011;5280;42.600;23.556;2023-02-12T01:44:32;14.20;;;10.10;;
10465;SDS011;5280;42.600;23.556;2023-02-12T01:47:00;13.53;;;9.17;;
10465;SDS011;5280;42.600;23.556;2023-02-12T01:49:31;13.27;;;9.47;;
10465;SDS011;5280;42.600;23.556;2023-02-12T01:52:04;15.93;;;9.90;;
10465;SDS011;5280;42.600;23.556;2023-02-12T01:54:34;13.40;;;9.93;;
10465;SDS011;5280;42.600;23.556;2023-02-12T01:57:03;15.30;;;10.60;;
10465;SDS011;5280;42.600;23.556;2023-02-12T01:59:31;16.00;;;9.67;;
10465;SDS011;5280;42.600;23.556;2023-02-12T02:02:01;13.20;;;9.47;;
10465;SDS011;5280;42.600;23.556;2023-02-12T02:04:28;12.03;;;9.63;;
10465;SDS011;5280;42.600;23.556;2023-02-12T02:07:02;14.93;;;10.03;;
10465;SDS011;5280;42.600;23.556;2023-02-12T02:09:32;13.57;;;10.47;;
10465;SDS011;5280;42.600;23.556;2023-02-12T02:12:01;13.70;;;9.93;;
10465;SDS011;5280;42.600;23.556;2023-02-12T02:14:46;13.57;;;9.70;;
10465;SDS011;5280;42.600;23.556;2023-02-12T02:17:30;14.50;;;9.60;;
10465;SDS011;5280;42.600;23.556;2023-02-12T02:23:29;14.10;;;9.73;;
10465;SDS011;5280;42.600;23.556;2023-02-12T02:26:27;16.17;;;9.17;;
10465;SDS011;5280;42.600;23.556;2023-02-12T02:29:20;14.53;;;9.80;;
10465;SDS011;5280;42.600;23.556;2023-02-12T02:32:09;14.43;;;9.17;;
10465;SDS011;5280;42.600;23.556;2023-02-12T02:34:39;12.37;;;9.23;;
10465;SDS011;5280;42.600;23.556;2023-02-12T02:37:16;12.90;;;9.20;;
10465;SDS011;5280;42.600;23.556;2023-02-12T02:39:47;14.33;;;9.40;;
10465;SDS011;5280;42.600;23.556;2023-02-12T02:42:22;13.00;;;9.07;;
10465;SDS011;5280;42.600;23.556;2023-02-12T02:44:53;11.43;;;9.33;;
10465;SDS011;5280;42.600;23.556;2023-02-12T02:47:25;14.60;;;9.83;;
10465;SDS011;5280;42.600;23.556;2023-02-12T02:49:59;13.93;;;9.17;;
10465;SDS011;5280;42.600;23.556;2023-02-12T02:52:30;14.20;;;9.10;;
10465;SDS011;5280;42.600;23.556;2023-02-12T02:55:04;13.20;;;8.67;;
10465;SDS011;5280;42.600;23.556;2023-02-12T02:57:35;13.93;;;9.70;;
10465;SDS011;5280;42.600;23.556;2023-02-12T03:00:10;13.57;;;9.93;;
10465;SDS011;5280;42.600;23.556;2023-02-12T03:02:43;18.23;;;10.70;;
10465;SDS011;5280;42.600;23.556;2023-02-12T03:05:15;13.03;;;8.83;;
10465;SDS011;5280;42.600;23.556;2023-02-12T03:07:47;13.53;;;9.40;;
10465;SDS011;5280;42.600;23.556;2023-02-12T03:10:17;13.43;;;9.77;;
10465;SDS011;5280;42.600;23.556;2023-02-12T03:12:51;12.47;;;9.20;;
10465;SDS011;5280;42.600;23.556;2023-02-12T03:15:23;18.27;;;11.07;;
10465;SDS011;5280;42.600;23.556;2023-02-12T03:17:58;14.63;;;10.63;;
10465;SDS011;5280;42.600;23.556;2023-02-12T03:20:30;15.43;;;11.10;;
10465;SDS011;5280;42.600;23.556;2023-02-12T03:23:02;16.13;;;11.13;;
10465;SDS011;5280;42.600;23.556;2023-02-12T03:25:34;15.17;;;10.60;;
10465;SDS011;5280;42.600;23.556;2023-02-12T03:28:05;16.70;;;10.63;;
10465;SDS011;5280;42.600;23.556;2023-02-12T03:30:37;13.40;;;10.03;;
10465;SDS011;5280;42.600;23.556;2023-02-12T03:33:14;19.27;;;10.40;;
10465;SDS011;5280;42.600;23.556;2023-02-12T03:35:50;14.73;;;10.13;;
10465;SDS011;5280;42.600;23.556;2023-02-12T03:38:28;13.87;;;10.87;;
10465;SDS011;5280;42.600;23.556;2023-02-12T03:41:04;16.10;;;10.57;;
10465;SDS011;5280;42.600;23.556;2023-02-12T03:43:37;15.73;;;10.93;;
10465;SDS011;5280;42.600;23.556;2023-02-12T03:46:13;16.33;;;11.33;;
10465;SDS011;5280;42.600;23.556;2023-02-12T03:48:45;17.63;;;11.20;;
10465;SDS011;5280;42.600;23.556;2023-02-12T03:51:24;17.90;;;12.37;;
10465;SDS011;5280;42.600;23.556;2023-02-12T03:53:55;15.43;;;11.40;;
10465;SDS011;5280;42.600;23.556;2023-02-12T03:56:24;16.83;;;10.93;;
10465;SDS011;5280;42.600;23.556;2023-02-12T03:58:57;16.27;;;11.43;;
10465;SDS011;5280;42.600;23.556;2023-02-12T04:01:23;18.23;;;11.83;;
10465;SDS011;5280;42.600;23.556;2023-02-12T04:03:53;16.50;;;11.87;;
10465;SDS011;5280;42.600;23.556;2023-02-12T04:06:21;18.00;;;12.23;;
10465;SDS011;5280;42.600;23.556;2023-02-12T04:08:49;17.70;;;12.53;;
10465;SDS011;5280;42.600;23.556;2023-02-12T04:11:20;15.80;;;12.10;;
10465;SDS011;5280;42.600;23.556;2023-02-12T04:13:58;15.77;;;11.93;;
10465;SDS011;5280;42.600;23.556;2023-02-12T04:16:40;15.50;;;10.77;;
10465;SDS011;5280;42.600;23.556;2023-02-12T04:19:15;16.50;;;10.97;;
10465;SDS011;5280;42.600;23.556;2023-02-12T04:21:52;17.63;;;11.70;;
10465;SDS011;5280;42.600;23.556;2023-02-12T04:24:31;17.53;;;11.80;;
10465;SDS011;5280;42.600;23.556;2023-02-12T04:27:08;17.53;;;12.00;;
10465;SDS011;5280;42.600;23.556;2023-02-12T04:29:42;17.87;;;12.57;;
10465;SDS011;5280;42.600;23.556;2023-02-12T04:32:15;17.60;;;11.87;;
10465;SDS011;5280;42.600;23.556;2023-02-12T04:34:48;17.00;;;11.70;;
10465;SDS011;5280;42.600;23.556;2023-02-12T04:37:23;15.90;;;11.20;;
10465;SDS011;5280;42.600;23.556;2023-02-12T04:39:54;18.47;;;12.13;;
10465;SDS011;5280;42.600;23.556;2023-02-12T04:42:23;16.90;;;11.17;;
10465;SDS011;5280;42.600;23.556;2023-02-12T04:44:50;16.53;;;11.53;;
10465;SDS011;5280;42.600;23.556;2023-02-12T04:47:17;16.73;;;11.93;;
10465;SDS011;5280;42.600;23.556;2023-02-12T04:49:44;17.30;;;12.03;;
10465;SDS011;5280;42.600;23.556;2023-02-12T04:52:12;15.20;;;11.33;;
10465;SDS011;5280;42.600;23.556;2023-02-12T04:54:39;17.63;;;11.73;;
10465;SDS011;5280;42.600;23.556;2023-02-12T04:57:06;15.67;;;10.77;;
10465;SDS011;5280;42.600;23.556;2023-02-12T04:59:34;18.57;;;12.03;;
10465;SDS011;5280;42.600;23.556;2023-02-12T05:02:01;18.47;;;11.10;;
10465;SDS011;5280;42.600;23.556;2023-02-12T05:04:27;16.10;;;10.80;;
10465;SDS011;5280;42.600;23.556;2023-02-12T05:06:57;16.13;;;11.00;;
10465;SDS011;5280;42.600;23.556;2023-02-12T05:09:25;17.03;;;11.07;;
10465;SDS011;5280;42.600;23.556;2023-02-12T05:11:52;17.73;;;11.10;;
10465;SDS011;5280;42.600;23.556;2023-02-12T05:14:19;15.77;;;10.07;;
10465;SDS011;5280;42.600;23.556;2023-02-12T05:16:45;14.37;;;9.97;;
10465;SDS011;5280;42.600;23.556;2023-02-12T05:19:12;15.43;;;9.63;;
10465;SDS011;5280;42.600;23.556;2023-02-12T05:21:40;15.27;;;10.60;;
10465;SDS011;5280;42.600;23.556;2023-02-12T05:24:07;15.37;;;10.50;;
10465;SDS011;5280;42.600;23.556;2023-02-12T05:26:35;17.83;;;9.10;;
10465;SDS011;5280;42.600;23.556;2023-02-12T05:29:02;14.47;;;10.10;;
10465;SDS011;5280;42.600;23.556;2023-02-12T05:31:29;15.27;;;10.73;;
10465;SDS011;5280;42.600;23.556;2023-02-12T05:33:56;14.27;;;10.27;;
10465;SDS011;5280;42.600;23.556;2023-02-12T05:36:23;15.40;;;10.73;;
10465;SDS011;5280;42.600;23.556;2023-02-12T05:38:50;15.67;;;10.40;;
10465;SDS011;5280;42.600;23.556;2023-02-12T05:41:18;16.13;;;11.53;;
10465;SDS011;5280;42.600;23.556;2023-02-12T05:43:49;18.53;;;12.33;;
10465;SDS011;5280;42.600;23.556;2023-02-12T05:46:17;17.10;;;11.23;;
10465;SDS011;5280;42.600;23.556;2023-02-12T05:48:45;18.83;;;12.77;;
10465;SDS011;5280;42.600;23.556;2023-02-12T05:51:13;14.63;;;9.70;;
10465;SDS011;5280;42.600;23.556;2023-02-12T05:53:41;16.03;;;10.83;;
10465;SDS011;5280;42.600;23.556;2023-02-12T05:56:08;17.80;;;9.80;;
10465;SDS011;5280;42.600;23.556;2023-02-12T05:58:37;16.43;;;10.93;;
10465;SDS011;5280;42.600;23.556;2023-02-12T06:01:09;17.60;;;12.23;;
10465;SDS011;5280;42.600;23.556;2023-02-12T06:03:37;16.17;;;11.27;;
10465;SDS011;5280;42.600;23.556;2023-02-12T06:06:04;16.37;;;10.20;;
10465;SDS011;5280;42.600;23.556;2023-02-12T06:08:31;13.97;;;9.00;;
10465;SDS011;5280;42.600;23.556;2023-02-12T06:10:59;15.70;;;10.13;;
10465;SDS011;5280;42.600;23.556;2023-02-12T06:13:27;12.80;;;9.80;;
10465;SDS011;5280;42.600;23.556;2023-02-12T06:15:54;15.30;;;8.97;;
10465;SDS011;5280;42.600;23.556;2023-02-12T06:18:22;11.97;;;8.90;;
10465;SDS011;5280;42.600;23.556;2023-02-12T06:20:49;14.77;;;9.63;;
10465;SDS011;5280;42.600;23.556;2023-02-12T06:23:18;12.27;;;8.73;;
10465;SDS011;5280;42.600;23.556;2023-02-12T06:25:45;12.27;;;8.30;;
10465;SDS011;5280;42.600;23.556;2023-02-12T06:28:12;12.93;;;8.87;;
10465;SDS011;5280;42.600;23.556;2023-02-12T06:30:38;15.63;;;10.77;;
10465;SDS011;5280;42.600;23.556;2023-02-12T06:33:05;15.80;;;9.37;;
10465;SDS011;5280;42.600;23.556;2023-02-12T06:35:34;13.33;;;10.27;;
10465;SDS011;5280;42.600;23.556;2023-02-12T06:38:02;12.93;;;9.17;;
10465;SDS011;5280;42.600;23.556;2023-02-12T06:40:29;10.50;;;7.23;;
10465;SDS011;5280;42.600;23.556;2023-02-12T06:42:55;16.50;;;10.17;;
10465;SDS011;5280;42.600;23.556;2023-02-12T06:45:22;15.30;;;10.37;;
10465;SDS011;5280;42.600;23.556;2023-02-12T06:47:49;16.70;;;10.23;;
10465;SDS011;5280;42.600;23.556;2023-02-12T06:50:16;14.10;;;10.03;;
10465;SDS011;5280;42.600;23.556;2023-02-12T06:52:44;13.30;;;9.20;;
10465;SDS011;5280;42.600;23.556;2023-02-12T06:55:10;14.23;;;10.03;;
10465;SDS011;5280;42.600;23.556;2023-02-12T06:57:37;13.40;;;9.57;;
10465;SDS011;5280;42.600;23.556;2023-02-12T07:00:05;12.37;;;9.13;;
10465;SDS011;5280;42.600;23.556;2023-02-12T07:02:33;13.37;;;9.30;;
10465;SDS011;5280;42.600;23.556;2023-02-12T07:04:59;15.03;;;9.87;;
10465;SDS011;5280;42.600;23.556;2023-02-12T07:07:26;12.23;;;8.53;;
10465;SDS011;5280;42.600;23.556;2023-02-12T07:09:55;14.40;;;10.03;;
10465;SDS011;5280;42.600;23.556;2023-02-12T07:12:21;13.23;;;8.83;;
10465;SDS011;5280;42.600;23.556;2023-02-12T07:14:48;11.97;;;8.70;;
10465;SDS011;5280;42.600;23.556;2023-02-12T07:17:15;11.80;;;8.50;;
10465;SDS011;5280;42.600;23.556;2023-02-12T07:19:42;11.83;;;8.33;;
10465;SDS011;5280;42.600;23.556;2023-02-12T07:22:09;15.00;;;9.90;;
10465;SDS011;5280;42.600;23.556;2023-02-12T07:24:36;12.17;;;8.40;;
10465;SDS011;5280;42.600;23.556;2023-02-12T07:27:04;14.07;;;9.17;;
10465;SDS011;5280;42.600;23.556;2023-02-12T07:29:31;14.50;;;9.20;;
10465;SDS011;5280;42.600;23.556;2023-02-12T07:31:58;11.77;;;8.60;;
10465;SDS011;5280;42.600;23.556;2023-02-12T07:34:25;12.97;;;9.20;;
10465;SDS011;5280;42.600;23.556;2023-02-12T07:36:52;13.27;;;9.20;;
10465;SDS011;5280;42.600;23.556;2023-02-12T07:39:19;12.43;;;9.43;;
10465;SDS011;5280;42.600;23.556;2023-02-12T07:41:46;13.77;;;8.57;;
10465;SDS011;5280;42.600;23.556;2023-02-12T07:44:14;13.73;;;9.17;;
10465;SDS011;5280;42.600;23.556;2023-02-12T07:46:42;12.53;;;9.27;;
10465;SDS011;5280;42.600;23.556;2023-02-12T07:49:09;13.30;;;9.37;;
10465;SDS011;5280;42.600;23.556;2023-02-12T07:51:39;12.70;;;10.03;;
10465;SDS011;5280;42.600;23.556;2023-02-12T07:54:06;16.13;;;10.43;;
10465;SDS011;5280;42.600;23.556;2023-02-12T07:56:34;13.50;;;10.00;;
10465;SDS011;5280;42.600;23.556;2023-02-12T07:59:03;15.07;;;10.63;;
10465;SDS011;5280;42.600;23.556;2023-02-12T08:01:34;15.57;;;10.60;;
10465;SDS011;5280;42.600;23.556;2023-02-12T08:04:02;16.77;;;11.07;;
10465;SDS011;5280;42.600;23.556;2023-02-12T08:06:32;15.10;;;10.87;;
10465;SDS011;5280;42.600;23.556;2023-02-12T08:09:02;15.27;;;10.77;;
10465;SDS011;5280;42.600;23.556;2023-02-12T08:11:30;21.67;;;14.43;;
10465;SDS011;5280;42.600;23.556;2023-02-12T08:13:57;16.73;;;10.73;;
10465;SDS011;5280;42.600;23.556;2023-02-12T08:16:25;17.33;;;12.00;;
10465;SDS011;5280;42.600;23.556;2023-02-12T08:18:55;19.93;;;15.17;;
10465;SDS011;5280;42.600;23.556;2023-02-12T08:21:22;17.90;;;12.07;;
10465;SDS011;5280;42.600;23.556;2023-02-12T08:23:51;20.47;;;14.57;;
10465;SDS011;5280;42.600;23.556;2023-02-12T08:26:20;21.57;;;12.83;;
10465;SDS011;5280;42.600;23.556;2023-02-12T08:28:48;23.53;;;14.87;;
10465;SDS011;5280;42.600;23.556;2023-02-12T08:31:18;16.40;;;11.70;;
10465;SDS011;5280;42.600;23.556;2023-02-12T08:33:47;18.23;;;12.27;;
10465;SDS011;5280;42.600;23.556;2023-02-12T08:36:16;16.13;;;10.80;;
10465;SDS011;5280;42.600;23.556;2023-02-12T08:38:46;17.13;;;12.30;;
10465;SDS011;5280;42.600;23.556;2023-02-12T08:41:14;21.30;;;13.20;;
10465;SDS011;5280;42.600;23.556;2023-02-12T08:43:43;18.67;;;12.50;;
10465;SDS011;5280;42.600;23.556;2023-02-12T08:46:11;18.50;;;11.10;;
10465;SDS011;5280;42.600;23.556;2023-02-12T08:48:40;17.53;;;11.83;;
10465;SDS011;5280;42.600;23.556;2023-02-12T08:51:08;14.57;;;10.97;;
10465;SDS011;5280;42.600;23.556;2023-02-12T08:53:38;18.60;;;11.83;;
10465;SDS011;5280;42.600;23.556;2023-02-12T08:56:06;17.07;;;11.53;;
10465;SDS011;5280;42.600;23.556;2023-02-12T08:58:34;18.73;;;12.40;;
10465;SDS011;5280;42.600;23.556;2023-02-12T09:01:02;18.07;;;13.10;;
10465;SDS011;5280;42.600;23.556;2023-02-12T09:03:29;15.83;;;12.13;;
10465;SDS011;5280;42.600;23.556;2023-02-12T09:05:56;16.03;;;12.00;;
10465;SDS011;5280;42.600;23.556;2023-02-12T09:08:23;17.60;;;12.87;;
10465;SDS011;5280;42.600;23.556;2023-02-12T09:10:52;17.90;;;12.33;;
10465;SDS011;5280;42.600;23.556;2023-02-12T09:13:22;15.60;;;11.80;;
10465;SDS011;5280;42.600;23.556;2023-02-12T09:15:50;17.33;;;12.50;;
10465;SDS011;5280;42.600;23.556;2023-02-12T09:18:17;18.17;;;12.70;;
10465;SDS011;5280;42.600;23.556;2023-02-12T09:20:44;17.07;;;13.30;;
10465;SDS011;5280;42.600;23.556;2023-02-12T09:23:11;17.63;;;12.50;;
10465;SDS011;5280;42.600;23.556;2023-02-12T09:25:40;21.13;;;13.97;;
10465;SDS011;5280;42.600;23.556;2023-02-12T09:28:09;19.93;;;13.83;;
10465;SDS011;5280;42.600;23.556;2023-02-12T09:30:37;18.93;;;13.60;;
10465;SDS011;5280;42.600;23.556;2023-02-12T09:33:05;21.40;;;14.70;;
10465;SDS011;5280;42.600;23.556;2023-02-12T09:35:33;21.30;;;14.63;;
10465;SDS011;5280;42.600;23.556;2023-02-12T09:37:59;20.83;;;14.77;;
10465;SDS011;5280;42.600;23.556;2023-02-12T09:40:27;18.77;;;13.93;;
10465;SDS011;5280;42.600;23.556;2023-02-12T09:43:05;19.70;;;13.53;;
10465;SDS011;5280;42.600;23.556;2023-02-12T09:45:43;21.47;;;13.87;;
10465;SDS011;5280;42.600;23.556;2023-02-12T09:51:18;18.70;;;13.33;;
10465;SDS011;5280;42.600;23.556;2023-02-12T09:53:46;20.40;;;14.33;;
10465;SDS011;5280;42.600;23.556;2023-02-12T09:56:15;20.00;;;15.77;;
10465;SDS011;5280;42.600;23.556;2023-02-12T09:58:46;21.73;;;15.60;;
10465;SDS011;5280;42.600;23.556;2023-02-12T10:01:17;17.07;;;13.80;;
10465;SDS011;5280;42.600;23.556;2023-02-12T10:03:46;19.47;;;13.30;;
10465;SDS011;5280;42.600;23.556;2023-02-12T10:06:15;18.67;;;13.57;;
10465;SDS011;5280;42.600;23.556;2023-02-12T10:08:51;20.47;;;13.67;;
10465;SDS011;5280;42.600;23.556;2023-02-12T10:11:40;16.40;;;12.87;;
10465;SDS011;5280;42.600;23.556;2023-02-12T10:14:25;19.17;;;13.60;;
10465;SDS011;5280;42.600;23.556;2023-02-12T10:17:12;15.77;;;11.93;;
10465;SDS011;5280;42.600;23.556;2023-02-12T10:22:38;18.17;;;12.90;;
10465;SDS011;5280;42.600;23.556;2023-02-12T10:25:16;16.93;;;13.00;;
10465;SDS011;5280;42.600;23.556;2023-02-12T10:27:49;20.80;;;13.80;;
10465;SDS011;5280;42.600;23.556;2023-02-12T10:30:20;20.53;;;13.50;;
10465;SDS011;5280;42.600;23.556;2023-02-12T10:32:49;18.87;;;13.57;;
10465;SDS011;5280;42.600;23.556;2023-02-12T10:35:20;18.77;;;13.87;;
10465;SDS011;5280;42.600;23.556;2023-02-12T10:37:51;20.13;;;14.10;;
10465;SDS011;5280;42.600;23.556;2023-02-12T10:40:23;18.17;;;13.80;;
10465;SDS011;5280;42.600;23.556;2023-02-12T10:42:54;19.83;;;14.93;;
10465;SDS011;5280;42.600;23.556;2023-02-12T10:45:25;19.33;;;14.80;;
10465;SDS011;5280;42.600;23.556;2023-02-12T10:48:02;21.23;;;14.83;;
10465;SDS011;5280;42.600;23.556;2023-02-12T10:50:36;19.77;;;14.97;;
10465;SDS011;5280;42.600;23.556;2023-02-12T10:53:12;21.00;;;14.20;;
10465;SDS011;5280;42.600;23.556;2023-02-12T10:55:43;20.20;;;14.57;;
10465;SDS011;5280;42.600;23.556;2023-02-12T10:58:16;20.37;;;15.20;;
10465;SDS011;5280;42.600;23.556;2023-02-12T11:00:48;20.57;;;15.30;;
10465;SDS011;5280;42.600;23.556;2023-02-12T11:03:23;20.53;;;14.43;;
10465;SDS011;5280;42.600;23.556;2023-02-12T11:05:54;20.90;;;15.13;;
10465;SDS011;5280;42.600;23.556;2023-02-12T11:08:29;18.27;;;13.87;;
10465;SDS011;5280;42.600;23.556;2023-02-12T11:11:01;20.23;;;15.07;;
10465;SDS011;5280;42.600;23.556;2023-02-12T11:13:34;20.97;;;15.17;;
10465;SDS011;5280;42.600;23.556;2023-02-12T11:16:03;20.77;;;15.90;;
10465;SDS011;5280;42.600;23.556;2023-02-12T11:18:31;20.83;;;14.77;;
10465;SDS011;5280;42.600;23.556;2023-02-12T11:21:02;21.50;;;15.17;;
10465;SDS011;5280;42.600;23.556;2023-02-12T11:23:31;19.73;;;14.77;;
10465;SDS011;5280;42.600;23.556;2023-02-12T11:26:00;21.47;;;14.47;;
10465;SDS011;5280;42.600;23.556;2023-02-12T11:28:29;20.30;;;14.70;;
10465;SDS011;5280;42.600;23.556;2023-02-12T11:30:58;20.63;;;14.67;;
10465;SDS011;5280;42.600;23.556;2023-02-12T11:33:29;22.43;;;14.60;;
10465;SDS011;5280;42.600;23.556;2023-02-12T11:35:59;19.23;;;14.93;;
10465;SDS011;5280;42.600;23.556;2023-02-12T11:38:30;22.80;;;14.83;;
10465;SDS011;5280;42.600;23.556;2023-02-12T11:41:00;22.37;;;15.87;;
10465;SDS011;5280;42.600;23.556;2023-02-12T11:43:33;24.83;;;16.50;;
10465;SDS011;5280;42.600;23.556;2023-02-12T11:46:03;32.77;;;20.43;;
10465;SDS011;5280;42.600;23.556;2023-02-12T11:48:34;22.03;;;16.80;;
10465;SDS011;5280;42.600;23.556;2023-02-12T11:51:04;29.03;;;18.43;;
10465;SDS011;5280;42.600;23.556;2023-02-12T11:53:34;27.03;;;17.57;;
10465;SDS011;5280;42.600;23.556;2023-02-12T11:56:04;22.07;;;17.03;;
10465;SDS011;5280;42.600;23.556;2023-02-12T11:58:33;26.00;;;18.23;;
10465;SDS011;5280;42.600;23.556;2023-02-12T12:01:02;21.30;;;15.50;;
10465;SDS011;5280;42.600;23.556;2023-02-12T12:03:35;21.87;;;15.40;;
10465;SDS011;5280;42.600;23.556;2023-02-12T12:06:13;19.87;;;15.20;;
10465;SDS011;5280;42.600;23.556;2023-02-12T12:08:55;22.70;;;15.63;;
10465;SDS011;5280;42.600;23.556;2023-02-12T12:11:27;22.47;;;15.30;;
10465;SDS011;5280;42.600;23.556;2023-02-12T12:14:03;24.17;;;17.00;;
10465;SDS011;5280;42.600;23.556;2023-02-12T12:16:35;23.53;;;16.70;;
10465;SDS011;5280;42.600;23.556;2023-02-12T12:19:28;21.23;;;17.10;;
10465;SDS011;5280;42.600;23.556;2023-02-12T12:22:21;23.33;;;17.57;;
10465;SDS011;5280;42.600;23.556;2023-02-12T12:24:55;23.97;;;17.53;;
10465;SDS011;5280;42.600;23.556;2023-02-12T12:27:26;22.33;;;17.33;;
10465;SDS011;5280;42.600;23.556;2023-02-12T12:30:19;22.97;;;16.17;;
10465;SDS011;5280;42.600;23.556;2023-02-12T12:32:50;24.70;;;17.87;;
10465;SDS011;5280;42.600;23.556;2023-02-12T12:35:24;25.67;;;18.00;;
10465;SDS011;5280;42.600;23.556;2023-02-12T12:37:58;21.60;;;16.70;;
10465;SDS011;5280;42.600;23.556;2023-02-12T12:40:33;20.80;;;16.40;;
10465;SDS011;5280;42.600;23.556;2023-02-12T12:43:17;26.17;;;17.23;;
10465;SDS011;5280;42.600;23.556;2023-02-12T12:46:00;23.03;;;15.57;;
10465;SDS011;5280;42.600;23.556;2023-02-12T12:48:40;21.97;;;16.27;;
10465;SDS011;5280;42.600;23.556;2023-02-12T12:51:43;24.47;;;17.00;;
10465;SDS011;5280;42.600;23.556;2023-02-12T12:54:24;20.77;;;16.40;;
10465;SDS011;5280;42.600;23.556;2023-02-12T12:57:06;24.80;;;17.53;;
10465;SDS011;5280;42.600;23.556;2023-02-12T12:59:56;23.67;;;17.77;;
10465;SDS011;5280;42.600;23.556;2023-02-12T13:06:07;20.80;;;15.80;;
10465;SDS011;5280;42.600;23.556;2023-02-12T13:09:02;21.67;;;16.53;;
10465;SDS011;5280;42.600;23.556;2023-02-12T13:12:05;23.00;;;17.47;;
10465;SDS011;5280;42.600;23.556;2023-02-12T13:14:51;27.30;;;18.73;;
10465;SDS011;5280;42.600;23.556;2023-02-12T13:17:26;26.60;;;18.27;;
10465;SDS011;5280;42.600;23.556;2023-02-12T13:20:03;31.73;;;18.37;;
10465;SDS011;5280;42.600;23.556;2023-02-12T13:22:36;24.73;;;17.77;;
10465;SDS011;5280;42.600;23.556;2023-02-12T13:25:17;24.87;;;18.13;;
10465;SDS011;5280;42.600;23.556;2023-02-12T13:27:50;26.50;;;18.13;;
10465;SDS011;5280;42.600;23.556;2023-02-12T13:30:20;28.00;;;19.40;;
10465;SDS011;5280;42.600;23.556;2023-02-12T13:32:50;29.53;;;21.03;;
10465;SDS011;5280;42.600;23.556;2023-02-12T13:35:24;26.53;;;20.53;;
10465;SDS011;5280;42.600;23.556;2023-02-12T13:37:54;28.00;;;20.17;;
10465;SDS011;5280;42.600;23.556;2023-02-12T13:40:23;27.00;;;18.20;;
10465;SDS011;5280;42.600;23.556;2023-02-12T13:42:52;23.43;;;17.97;;
10465;SDS011;5280;42.600;23.556;2023-02-12T13:45:29;25.97;;;19.17;;
10465;SDS011;5280;42.600;23.556;2023-02-12T13:51:06;23.67;;;17.97;;
10465;SDS011;5280;42.600;23.556;2023-02-12T13:53:43;26.93;;;18.03;;
10465;SDS011;5280;42.600;23.556;2023-02-12T13:56:24;25.83;;;18.57;;
10465;SDS011;5280;42.600;23.556;2023-02-12T13:58:58;25.33;;;18.60;;
10465;SDS011;5280;42.600;23.556;2023-02-12T14:01:38;23.10;;;17.57;;
10465;SDS011;5280;42.600;23.556;2023-02-12T14:06:59;25.97;;;18.53;;
10465;SDS011;5280;42.600;23.556;2023-02-12T14:09:31;25.27;;;18.53;;
10465;SDS011;5280;42.600;23.556;2023-02-12T14:12:04;24.93;;;18.67;;
10465;SDS011;5280;42.600;23.556;2023-02-12T14:14:33;25.77;;;18.93;;
10465;SDS011;5280;42.600;23.556;2023-02-12T14:20:18;24.27;;;18.93;;
10465;SDS011;5280;42.600;23.556;2023-02-12T14:22:59;23.97;;;18.43;;
10465;SDS011;5280;42.600;23.556;2023-02-12T14:25:41;26.97;;;18.70;;
10465;SDS011;5280;42.600;23.556;2023-02-12T14:28:22;25.60;;;18.97;;
10465;SDS011;5280;42.600;23.556;2023-02-12T14:37:08;25.00;;;19.63;;
10465;SDS011;5280;42.600;23.556;2023-02-12T14:39:36;25.67;;;19.83;;
10465;SDS011;5280;42.600;23.556;2023-02-12T14:47:56;28.47;;;20.20;;
10465;SDS011;5280;42.600;23.556;2023-02-12T14:50:25;26.60;;;19.87;;
10465;SDS011;5280;42.600;23.556;2023-02-12T14:53:03;28.40;;;20.13;;
10465;SDS011;5280;42.600;23.556;2023-02-12T14:55:33;28.47;;;20.83;;
10465;SDS011;5280;42.600;23.556;2023-02-12T14:58:01;28.03;;;20.77;;
10465;SDS011;5280;42.600;23.556;2023-02-12T15:00:37;30.50;;;20.47;;
10465;SDS011;5280;42.600;23.556;2023-02-12T15:05:59;49.03;;;30.20;;
10465;SDS011;5280;42.600;23.556;2023-02-12T15:08:40;34.97;;;24.80;;
10465;SDS011;5280;42.600;23.556;2023-02-12T15:14:06;32.70;;;23.83;;
10465;SDS011;5280;42.600;23.556;2023-02-12T15:16:43;38.80;;;26.87;;
10465;SDS011;5280;42.600;23.556;2023-02-12T15:19:26;33.83;;;23.53;;
10465;SDS011;5280;42.600;23.556;2023-02-12T15:22:02;26.53;;;19.73;;
10465;SDS011;5280;42.600;23.556;2023-02-12T15:24:29;28.10;;;21.27;;
10465;SDS011;5280;42.600;23.556;2023-02-12T15:26:56;29.10;;;20.37;;
10465;SDS011;5280;42.600;23.556;2023-02-12T15:29:25;30.97;;;21.07;;